sensor_id;sensor_type;location;lat;lon;timestamp;P1;durP1;ratioP1;P2;durP2;ratioP2
27412;SDS011;14871;52.702;5.230;2023-04-01T00:00:21;24.50;;;13.10;;
27412;SDS011;14871;52.702;5.230;2023-04-01T00:02:47;19.38;;;12.65;;
27412;SDS011;14871;52.702;5.230;2023-04-01T00:05:13;23.90;;;12.13;;
27412;SDS011;14871;52.702;5.230;2023-04-01T00:07:39;24.13;;;14.48;;
27412;SDS011;14871;52.702;5.230;2023-04-01T00:10:06;23.17;;;13.95;;
27412;SDS011;14871;52.702;5.230;2023-04-01T00:12:33;23.70;;;12.63;;
27412;SDS011;14871;52.702;5.230;2023-04-01T00:14:59;20.38;;;12.52;;
27412;SDS011;14871;52.702;5.230;2023-04-01T00:17:25;25.30;;;12.45;;
27412;SDS011;14871;52.702;5.230;2023-04-01T00:19:51;23.25;;;12.05;;
27412;SDS011;14871;52.702;5.230;2023-04-01T00:22:19;19.27;;;12.00;;
27412;SDS011;14871;52.702;5.230;2023-04-01T00:24:45;25.15;;;12.65;;
27412;SDS011;14871;52.702;5.230;2023-04-01T00:27:11;25.00;;;13.18;;
27412;SDS011;14871;52.702;5.230;2023-04-01T00:29:37;20.95;;;11.40;;
27412;SDS011;14871;52.702;5.230;2023-04-01T00:32:03;19.15;;;12.20;;
27412;SDS011;14871;52.702;5.230;2023-04-01T00:34:29;21.75;;;11.35;;
27412;SDS011;14871;52.702;5.230;2023-04-01T00:36:55;21.05;;;10.88;;
27412;SDS011;14871;52.702;5.230;2023-04-01T00:39:20;22.67;;;11.07;;
27412;SDS011;14871;52.702;5.230;2023-04-01T00:41:46;25.67;;;12.85;;
27412;SDS011;14871;52.702;5.230;2023-04-01T00:46:41;19.15;;;11.30;;
27412;SDS011;14871;52.702;5.230;2023-04-01T00:49:07;22.67;;;12.30;;
27412;SDS011;14871;52.702;5.230;2023-04-01T00:51:33;24.98;;;11.93;;
27412;SDS011;14871;52.702;5.230;2023-04-01T00:54:01;23.10;;;11.63;;
27412;SDS011;14871;52.702;5.230;2023-04-01T00:56:32;20.75;;;12.05;;
27412;SDS011;14871;52.702;5.230;2023-04-01T00:59:02;19.88;;;10.40;;
27412;SDS011;14871;52.702;5.230;2023-04-01T01:01:33;20.42;;;10.57;;
27412;SDS011;14871;52.702;5.230;2023-04-01T01:04:01;19.30;;;10.10;;
27412;SDS011;14871;52.702;5.230;2023-04-01T01:11:54;22.00;;;11.27;;
27412;SDS011;14871;52.702;5.230;2023-04-01T01:17:08;20.80;;;11.32;;
27412;SDS011;14871;52.702;5.230;2023-04-01T01:27:49;23.92;;;10.85;;
27412;SDS011;14871;52.702;5.230;2023-04-01T01:30:51;19.58;;;10.18;;
27412;SDS011;14871;52.702;5.230;2023-04-01T01:33:42;23.38;;;10.05;;
27412;SDS011;14871;52.702;5.230;2023-04-01T01:36:16;21.05;;;10.75;;
27412;SDS011;14871;52.702;5.230;2023-04-01T01:38:44;18.27;;;10.25;;
27412;SDS011;14871;52.702;5.230;2023-04-01T01:41:13;22.38;;;10.35;;
27412;SDS011;14871;52.702;5.230;2023-04-01T01:43:43;17.63;;;10.48;;
27412;SDS011;14871;52.702;5.230;2023-04-01T01:46:13;13.90;;;9.88;;
27412;SDS011;14871;52.702;5.230;2023-04-01T01:48:42;13.32;;;8.95;;
27412;SDS011;14871;52.702;5.230;2023-04-01T01:51:09;12.68;;;8.93;;
27412;SDS011;14871;52.702;5.230;2023-04-01T01:53:36;13.35;;;8.90;;
27412;SDS011;14871;52.702;5.230;2023-04-01T01:56:02;12.68;;;9.27;;
27412;SDS011;14871;52.702;5.230;2023-04-01T01:58:29;12.80;;;9.05;;
27412;SDS011;14871;52.702;5.230;2023-04-01T02:01:00;15.20;;;9.40;;
27412;SDS011;14871;52.702;5.230;2023-04-01T02:03:30;12.15;;;8.25;;
27412;SDS011;14871;52.702;5.230;2023-04-01T02:05:59;12.95;;;8.85;;
27412;SDS011;14871;52.702;5.230;2023-04-01T02:09:09;11.43;;;8.00;;
27412;SDS011;14871;52.702;5.230;2023-04-01T02:12:02;9.73;;;7.35;;
27412;SDS011;14871;52.702;5.230;2023-04-01T02:14:28;7.70;;;6.50;;
27412;SDS011;14871;52.702;5.230;2023-04-01T02:17:06;7.82;;;5.97;;
27412;SDS011;14871;52.702;5.230;2023-04-01T02:19:36;6.60;;;5.22;;
27412;SDS011;14871;52.702;5.230;2023-04-01T02:22:06;5.75;;;3.83;;
27412;SDS011;14871;52.702;5.230;2023-04-01T02:24:36;5.15;;;3.67;;
27412;SDS011;14871;52.702;5.230;2023-04-01T02:27:03;2.20;;;2.00;;
27412;SDS011;14871;52.702;5.230;2023-04-01T02:29:29;1.60;;;1.40;;
27412;SDS011;14871;52.702;5.230;2023-04-01T02:31:55;1.17;;;1.08;;
27412;SDS011;14871;52.702;5.230;2023-04-01T02:34:22;2.33;;;1.02;;
27412;SDS011;14871;52.702;5.230;2023-04-01T02:36:49;1.70;;;0.68;;
27412;SDS011;14871;52.702;5.230;2023-04-01T02:39:16;2.40;;;0.90;;
27412;SDS011;14871;52.702;5.230;2023-04-01T02:41:43;3.70;;;2.38;;
27412;SDS011;14871;52.702;5.230;2023-04-01T02:44:10;6.25;;;3.00;;
27412;SDS011;14871;52.702;5.230;2023-04-01T02:46:38;5.22;;;4.30;;
27412;SDS011;14871;52.702;5.230;2023-04-01T02:49:04;6.60;;;4.60;;
27412;SDS011;14871;52.702;5.230;2023-04-01T02:51:30;10.55;;;5.78;;
27412;SDS011;14871;52.702;5.230;2023-04-01T02:53:57;9.05;;;6.93;;
27412;SDS011;14871;52.702;5.230;2023-04-01T02:56:22;9.43;;;8.18;;
27412;SDS011;14871;52.702;5.230;2023-04-01T02:58:48;10.93;;;8.73;;
27412;SDS011;14871;52.702;5.230;2023-04-01T03:01:14;11.45;;;9.27;;
27412;SDS011;14871;52.702;5.230;2023-04-01T03:03:39;10.88;;;9.77;;
27412;SDS011;14871;52.702;5.230;2023-04-01T03:06:06;12.88;;;10.35;;
27412;SDS011;14871;52.702;5.230;2023-04-01T03:08:32;12.02;;;9.88;;
27412;SDS011;14871;52.702;5.230;2023-04-01T03:10:59;11.85;;;10.48;;
27412;SDS011;14871;52.702;5.230;2023-04-01T03:13:25;13.02;;;10.65;;
27412;SDS011;14871;52.702;5.230;2023-04-01T03:15:51;16.00;;;10.70;;
27412;SDS011;14871;52.702;5.230;2023-04-01T03:18:17;11.50;;;10.30;;
27412;SDS011;14871;52.702;5.230;2023-04-01T03:20:42;15.45;;;11.07;;
27412;SDS011;14871;52.702;5.230;2023-04-01T03:23:08;12.80;;;9.93;;
27412;SDS011;14871;52.702;5.230;2023-04-01T03:25:36;11.25;;;9.90;;
27412;SDS011;14871;52.702;5.230;2023-04-01T03:28:02;10.85;;;9.30;;
27412;SDS011;14871;52.702;5.230;2023-04-01T03:30:28;8.23;;;7.35;;
27412;SDS011;14871;52.702;5.230;2023-04-01T03:32:57;9.38;;;7.57;;
27412;SDS011;14871;52.702;5.230;2023-04-01T03:35:24;8.98;;;7.13;;
27412;SDS011;14871;52.702;5.230;2023-04-01T03:37:50;8.68;;;7.78;;
27412;SDS011;14871;52.702;5.230;2023-04-01T03:40:18;10.88;;;8.55;;
27412;SDS011;14871;52.702;5.230;2023-04-01T03:42:43;11.77;;;10.50;;
27412;SDS011;14871;52.702;5.230;2023-04-01T03:45:09;12.20;;;10.18;;
27412;SDS011;14871;52.702;5.230;2023-04-01T03:47:37;13.07;;;10.65;;
27412;SDS011;14871;52.702;5.230;2023-04-01T03:50:05;12.68;;;10.32;;
27412;SDS011;14871;52.702;5.230;2023-04-01T03:52:33;12.75;;;10.30;;
27412;SDS011;14871;52.702;5.230;2023-04-01T03:54:59;12.13;;;10.63;;
27412;SDS011;14871;52.702;5.230;2023-04-01T03:57:26;13.60;;;10.98;;
27412;SDS011;14871;52.702;5.230;2023-04-01T03:59:51;12.70;;;10.88;;
27412;SDS011;14871;52.702;5.230;2023-04-01T04:02:18;12.85;;;10.52;;
27412;SDS011;14871;52.702;5.230;2023-04-01T04:04:44;12.60;;;10.73;;
27412;SDS011;14871;52.702;5.230;2023-04-01T04:07:11;13.23;;;10.77;;
27412;SDS011;14871;52.702;5.230;2023-04-01T04:09:37;16.15;;;11.27;;
27412;SDS011;14871;52.702;5.230;2023-04-01T04:12:02;14.13;;;10.80;;
27412;SDS011;14871;52.702;5.230;2023-04-01T04:14:30;13.18;;;10.70;;
27412;SDS011;14871;52.702;5.230;2023-04-01T04:16:56;13.52;;;10.90;;
27412;SDS011;14871;52.702;5.230;2023-04-01T04:19:22;13.40;;;10.85;;
27412;SDS011;14871;52.702;5.230;2023-04-01T04:21:47;13.98;;;11.05;;
27412;SDS011;14871;52.702;5.230;2023-04-01T04:24:13;13.20;;;11.07;;
27412;SDS011;14871;52.702;5.230;2023-04-01T04:26:39;13.90;;;11.40;;
27412;SDS011;14871;52.702;5.230;2023-04-01T04:29:05;13.05;;;11.30;;
27412;SDS011;14871;52.702;5.230;2023-04-01T04:31:31;13.27;;;10.77;;
27412;SDS011;14871;52.702;5.230;2023-04-01T04:33:58;14.85;;;10.57;;
27412;SDS011;14871;52.702;5.230;2023-04-01T04:36:25;13.25;;;10.57;;
27412;SDS011;14871;52.702;5.230;2023-04-01T04:38:50;12.07;;;8.45;;
27412;SDS011;14871;52.702;5.230;2023-04-01T04:41:17;8.07;;;5.82;;
27412;SDS011;14871;52.702;5.230;2023-04-01T04:43:48;7.15;;;4.95;;
27412;SDS011;14871;52.702;5.230;2023-04-01T04:46:16;7.10;;;5.82;;
27412;SDS011;14871;52.702;5.230;2023-04-01T04:48:54;5.93;;;4.85;;
27412;SDS011;14871;52.702;5.230;2023-04-01T04:51:21;6.78;;;4.20;;
27412;SDS011;14871;52.702;5.230;2023-04-01T04:53:47;3.70;;;3.05;;
27412;SDS011;14871;52.702;5.230;2023-04-01T04:56:13;3.25;;;2.05;;
27412;SDS011;14871;52.702;5.230;2023-04-01T04:58:43;2.92;;;2.15;;
27412;SDS011;14871;52.702;5.230;2023-04-01T05:01:10;2.97;;;2.03;;
27412;SDS011;14871;52.702;5.230;2023-04-01T05:03:38;3.42;;;2.05;;
27412;SDS011;14871;52.702;5.230;2023-04-01T05:06:04;2.90;;;2.00;;
27412;SDS011;14871;52.702;5.230;2023-04-01T05:08:31;2.60;;;2.13;;
27412;SDS011;14871;52.702;5.230;2023-04-01T05:10:58;3.33;;;1.85;;
27412;SDS011;14871;52.702;5.230;2023-04-01T05:13:24;2.55;;;2.25;;
27412;SDS011;14871;52.702;5.230;2023-04-01T05:15:49;4.88;;;2.72;;
27412;SDS011;14871;52.702;5.230;2023-04-01T05:18:15;6.18;;;3.78;;
27412;SDS011;14871;52.702;5.230;2023-04-01T05:20:52;8.32;;;7.20;;
27412;SDS011;14871;52.702;5.230;2023-04-01T05:23:19;11.95;;;9.60;;
27412;SDS011;14871;52.702;5.230;2023-04-01T05:25:47;12.45;;;10.85;;
27412;SDS011;14871;52.702;5.230;2023-04-01T05:28:13;14.70;;;11.50;;
27412;SDS011;14871;52.702;5.230;2023-04-01T05:30:43;14.40;;;11.43;;
27412;SDS011;14871;52.702;5.230;2023-04-01T05:33:09;12.85;;;10.48;;
27412;SDS011;14871;52.702;5.230;2023-04-01T05:35:36;14.95;;;11.90;;
27412;SDS011;14871;52.702;5.230;2023-04-01T05:38:02;13.73;;;10.98;;
27412;SDS011;14871;52.702;5.230;2023-04-01T05:40:28;14.70;;;11.68;;
27412;SDS011;14871;52.702;5.230;2023-04-01T05:42:54;13.95;;;11.50;;
27412;SDS011;14871;52.702;5.230;2023-04-01T05:45:19;15.35;;;12.43;;
27412;SDS011;14871;52.702;5.230;2023-04-01T05:47:45;17.85;;;13.13;;
27412;SDS011;14871;52.702;5.230;2023-04-01T05:50:11;14.55;;;11.75;;
27412;SDS011;14871;52.702;5.230;2023-04-01T05:52:37;16.33;;;12.88;;
27412;SDS011;14871;52.702;5.230;2023-04-01T05:55:03;15.68;;;11.90;;
27412;SDS011;14871;52.702;5.230;2023-04-01T05:57:30;15.35;;;12.73;;
27412;SDS011;14871;52.702;5.230;2023-04-01T05:59:56;15.30;;;11.80;;
27412;SDS011;14871;52.702;5.230;2023-04-01T06:02:21;16.05;;;12.57;;
27412;SDS011;14871;52.702;5.230;2023-04-01T06:04:47;15.02;;;12.45;;
27412;SDS011;14871;52.702;5.230;2023-04-01T06:07:13;16.48;;;12.93;;
27412;SDS011;14871;52.702;5.230;2023-04-01T06:09:40;18.48;;;12.15;;
27412;SDS011;14871;52.702;5.230;2023-04-01T06:12:16;15.52;;;12.20;;
27412;SDS011;14871;52.702;5.230;2023-04-01T06:23:24;14.88;;;11.50;;
27412;SDS011;14871;52.702;5.230;2023-04-01T06:26:17;14.68;;;11.18;;
27412;SDS011;14871;52.702;5.230;2023-04-01T06:43:05;16.75;;;12.50;;
27412;SDS011;14871;52.702;5.230;2023-04-01T06:48:38;17.63;;;13.15;;
27412;SDS011;14871;52.702;5.230;2023-04-01T06:54:03;15.88;;;12.02;;
27412;SDS011;14871;52.702;5.230;2023-04-01T06:56:44;16.50;;;12.80;;
27412;SDS011;14871;52.702;5.230;2023-04-01T06:59:17;18.83;;;13.13;;
27412;SDS011;14871;52.702;5.230;2023-04-01T07:09:19;21.58;;;14.73;;
27412;SDS011;14871;52.702;5.230;2023-04-01T07:11:53;24.77;;;16.57;;
27412;SDS011;14871;52.702;5.230;2023-04-01T07:14:32;24.13;;;16.33;;
27412;SDS011;14871;52.702;5.230;2023-04-01T07:25:01;22.25;;;15.40;;
27412;SDS011;14871;52.702;5.230;2023-04-01T07:27:35;21.17;;;15.40;;
27412;SDS011;14871;52.702;5.230;2023-04-01T07:30:01;22.52;;;15.70;;
27412;SDS011;14871;52.702;5.230;2023-04-01T07:32:37;23.58;;;16.23;;
27412;SDS011;14871;52.702;5.230;2023-04-01T07:35:12;23.25;;;16.23;;
27412;SDS011;14871;52.702;5.230;2023-04-01T07:40:26;26.23;;;18.35;;
27412;SDS011;14871;52.702;5.230;2023-04-01T07:43:11;22.42;;;16.73;;
27412;SDS011;14871;52.702;5.230;2023-04-01T07:51:14;31.13;;;18.20;;
27412;SDS011;14871;52.702;5.230;2023-04-01T07:53:58;27.25;;;18.92;;
27412;SDS011;14871;52.702;5.230;2023-04-01T07:56:39;28.73;;;18.40;;
27412;SDS011;14871;52.702;5.230;2023-04-01T08:07:35;25.88;;;17.27;;
27412;SDS011;14871;52.702;5.230;2023-04-01T08:10:15;26.27;;;18.15;;
27412;SDS011;14871;52.702;5.230;2023-04-01T08:15:42;25.23;;;18.10;;
27412;SDS011;14871;52.702;5.230;2023-04-01T08:18:15;28.75;;;17.92;;
27412;SDS011;14871;52.702;5.230;2023-04-01T08:20:53;29.42;;;18.40;;
27412;SDS011;14871;52.702;5.230;2023-04-01T08:23:30;35.40;;;19.33;;
27412;SDS011;14871;52.702;5.230;2023-04-01T08:26:11;30.20;;;18.52;;
27412;SDS011;14871;52.702;5.230;2023-04-01T08:34:30;26.35;;;17.08;;
27412;SDS011;14871;52.702;5.230;2023-04-01T08:39:42;27.73;;;17.15;;
27412;SDS011;14871;52.702;5.230;2023-04-01T08:56:52;20.60;;;14.55;;
27412;SDS011;14871;52.702;5.230;2023-04-01T09:05:46;25.75;;;15.70;;
27412;SDS011;14871;52.702;5.230;2023-04-01T09:08:35;26.45;;;16.55;;
27412;SDS011;14871;52.702;5.230;2023-04-01T09:11:10;23.23;;;15.63;;
27412;SDS011;14871;52.702;5.230;2023-04-01T09:14:05;26.40;;;14.32;;
27412;SDS011;14871;52.702;5.230;2023-04-01T09:31:34;20.27;;;14.95;;
27412;SDS011;14871;52.702;5.230;2023-04-01T09:36:54;24.08;;;16.05;;
27412;SDS011;14871;52.702;5.230;2023-04-01T09:39:45;22.25;;;15.77;;
27412;SDS011;14871;52.702;5.230;2023-04-01T09:45:34;24.38;;;16.15;;
27412;SDS011;14871;52.702;5.230;2023-04-01T09:48:09;22.88;;;15.13;;
27412;SDS011;14871;52.702;5.230;2023-04-01T10:14:17;28.13;;;18.40;;
27412;SDS011;14871;52.702;5.230;2023-04-01T10:25:33;27.38;;;17.80;;
27412;SDS011;14871;52.702;5.230;2023-04-01T10:28:07;28.70;;;17.70;;
27412;SDS011;14871;52.702;5.230;2023-04-01T10:49:10;17.40;;;11.80;;
27412;SDS011;14871;52.702;5.230;2023-04-01T11:03:59;12.05;;;8.82;;
27412;SDS011;14871;52.702;5.230;2023-04-01T11:06:54;14.90;;;8.38;;
27412;SDS011;14871;52.702;5.230;2023-04-01T11:15:41;13.15;;;7.63;;
27412;SDS011;14871;52.702;5.230;2023-04-01T11:18:57;12.90;;;7.55;;
27412;SDS011;14871;52.702;5.230;2023-04-01T11:32:54;10.32;;;7.95;;
27412;SDS011;14871;52.702;5.230;2023-04-01T11:35:51;9.93;;;7.68;;
27412;SDS011;14871;52.702;5.230;2023-04-01T11:38:39;12.30;;;7.93;;
27412;SDS011;14871;52.702;5.230;2023-04-01T11:46:56;10.70;;;6.07;;
27412;SDS011;14871;52.702;5.230;2023-04-01T11:50:03;11.27;;;6.68;;
27412;SDS011;14871;52.702;5.230;2023-04-01T11:55:28;10.30;;;7.72;;
27412;SDS011;14871;52.702;5.230;2023-04-01T12:06:22;10.13;;;6.32;;
27412;SDS011;14871;52.702;5.230;2023-04-01T12:11:50;12.90;;;7.25;;
27412;SDS011;14871;52.702;5.230;2023-04-01T12:22:43;8.30;;;6.18;;
27412;SDS011;14871;52.702;5.230;2023-04-01T12:36:51;9.15;;;7.05;;
27412;SDS011;14871;52.702;5.230;2023-04-01T12:42:55;10.63;;;7.53;;
27412;SDS011;14871;52.702;5.230;2023-04-01T12:45:49;10.20;;;8.00;;
27412;SDS011;14871;52.702;5.230;2023-04-01T12:54:17;8.70;;;6.57;;
27412;SDS011;14871;52.702;5.230;2023-04-01T13:10:20;11.40;;;8.98;;
27412;SDS011;14871;52.702;5.230;2023-04-01T13:26:38;10.05;;;7.45;;
27412;SDS011;14871;52.702;5.230;2023-04-01T13:29:27;8.88;;;7.53;;
27412;SDS011;14871;52.702;5.230;2023-04-01T13:35:06;10.55;;;7.72;;
27412;SDS011;14871;52.702;5.230;2023-04-01T13:57:07;5.97;;;5.20;;
27412;SDS011;14871;52.702;5.230;2023-04-01T14:05:00;6.57;;;5.22;;
27412;SDS011;14871;52.702;5.230;2023-04-01T14:21:46;6.53;;;4.53;;
27412;SDS011;14871;52.702;5.230;2023-04-01T14:27:16;6.10;;;4.20;;
27412;SDS011;14871;52.702;5.230;2023-04-01T14:42:14;5.88;;;4.60;;
27412;SDS011;14871;52.702;5.230;2023-04-01T14:53:13;6.13;;;4.50;;
27412;SDS011;14871;52.702;5.230;2023-04-01T14:55:52;5.88;;;4.05;;
27412;SDS011;14871;52.702;5.230;2023-04-01T14:58:21;5.70;;;3.67;;
27412;SDS011;14871;52.702;5.230;2023-04-01T15:03:46;4.97;;;3.88;;
27412;SDS011;14871;52.702;5.230;2023-04-01T15:06:39;4.10;;;3.53;;
27412;SDS011;14871;52.702;5.230;2023-04-01T15:09:32;5.28;;;3.63;;
27412;SDS011;14871;52.702;5.230;2023-04-01T15:15:05;5.68;;;3.83;;
27412;SDS011;14871;52.702;5.230;2023-04-01T15:17:58;4.15;;;3.75;;
27412;SDS011;14871;52.702;5.230;2023-04-01T15:21:23;6.25;;;4.10;;
27412;SDS011;14871;52.702;5.230;2023-04-01T15:23:46;4.88;;;3.72;;
27412;SDS011;14871;52.702;5.230;2023-04-01T15:26:36;4.97;;;3.88;;
27412;SDS011;14871;52.702;5.230;2023-04-01T15:40:20;3.50;;;3.08;;
27412;SDS011;14871;52.702;5.230;2023-04-01T15:56:10;4.35;;;3.95;;
27412;SDS011;14871;52.702;5.230;2023-04-01T15:58:55;4.88;;;3.15;;
27412;SDS011;14871;52.702;5.230;2023-04-01T16:21:51;4.55;;;2.78;;
27412;SDS011;14871;52.702;5.230;2023-04-01T16:24:38;3.78;;;2.55;;
27412;SDS011;14871;52.702;5.230;2023-04-01T16:33:17;2.90;;;2.53;;
27412;SDS011;14871;52.702;5.230;2023-04-01T16:41:01;4.20;;;2.63;;
27412;SDS011;14871;52.702;5.230;2023-04-01T16:43:35;3.03;;;2.72;;
27412;SDS011;14871;52.702;5.230;2023-04-01T16:56:49;3.53;;;2.80;;
27412;SDS011;14871;52.702;5.230;2023-04-01T16:59:22;4.10;;;3.10;;
27412;SDS011;14871;52.702;5.230;2023-04-01T17:09:51;4.65;;;3.22;;
27412;SDS011;14871;52.702;5.230;2023-04-01T17:15:05;5.13;;;3.15;;
27412;SDS011;14871;52.702;5.230;2023-04-01T17:17:51;4.72;;;3.40;;
27412;SDS011;14871;52.702;5.230;2023-04-01T17:28:57;4.72;;;3.75;;
27412;SDS011;14871;52.702;5.230;2023-04-01T17:31:43;4.00;;;3.33;;
27412;SDS011;14871;52.702;5.230;2023-04-01T17:53:45;8.98;;;5.38;;
27412;SDS011;14871;52.702;5.230;2023-04-01T17:59:37;10.00;;;5.57;;
27412;SDS011;14871;52.702;5.230;2023-04-01T18:11:03;10.10;;;6.57;;
27412;SDS011;14871;52.702;5.230;2023-04-01T18:16:40;7.97;;;5.88;;
27412;SDS011;14871;52.702;5.230;2023-04-01T18:22:22;7.57;;;5.45;;
27412;SDS011;14871;52.702;5.230;2023-04-01T18:28:19;10.20;;;6.30;;
27412;SDS011;14871;52.702;5.230;2023-04-01T18:30:53;7.85;;;6.28;;
27412;SDS011;14871;52.702;5.230;2023-04-01T18:39:15;8.73;;;6.32;;
27412;SDS011;14871;52.702;5.230;2023-04-01T18:50:21;13.63;;;7.00;;
27412;SDS011;14871;52.702;5.230;2023-04-01T18:53:21;11.57;;;7.72;;
27412;SDS011;14871;52.702;5.230;2023-04-01T18:58:35;9.05;;;6.43;;
27412;SDS011;14871;52.702;5.230;2023-04-01T19:04:12;12.13;;;7.85;;
27412;SDS011;14871;52.702;5.230;2023-04-01T19:06:52;10.90;;;7.43;;
27412;SDS011;14871;52.702;5.230;2023-04-01T19:09:45;9.90;;;7.20;;
27412;SDS011;14871;52.702;5.230;2023-04-01T19:25:57;10.93;;;7.40;;
27412;SDS011;14871;52.702;5.230;2023-04-01T19:31:17;10.93;;;7.70;;
27412;SDS011;14871;52.702;5.230;2023-04-01T19:34:03;12.73;;;7.35;;
27412;SDS011;14871;52.702;5.230;2023-04-01T19:36:38;9.38;;;7.20;;
27412;SDS011;14871;52.702;5.230;2023-04-01T19:44:26;11.45;;;7.30;;
27412;SDS011;14871;52.702;5.230;2023-04-01T19:47:08;11.70;;;7.40;;
27412;SDS011;14871;52.702;5.230;2023-04-01T19:52:20;10.57;;;7.25;;
27412;SDS011;14871;52.702;5.230;2023-04-01T19:57:45;14.98;;;7.93;;
27412;SDS011;14871;52.702;5.230;2023-04-01T20:00:41;11.02;;;7.03;;
27412;SDS011;14871;52.702;5.230;2023-04-01T20:03:34;10.55;;;8.30;;
27412;SDS011;14871;52.702;5.230;2023-04-01T20:06:17;11.63;;;7.85;;
27412;SDS011;14871;52.702;5.230;2023-04-01T20:08:57;13.68;;;7.85;;
27412;SDS011;14871;52.702;5.230;2023-04-01T20:14:36;11.20;;;7.05;;
27412;SDS011;14871;52.702;5.230;2023-04-01T20:17:20;11.15;;;7.55;;
27412;SDS011;14871;52.702;5.230;2023-04-01T20:28:20;15.75;;;9.15;;
27412;SDS011;14871;52.702;5.230;2023-04-01T20:52:17;13.88;;;8.15;;
27412;SDS011;14871;52.702;5.230;2023-04-01T21:00:11;16.42;;;9.60;;
27412;SDS011;14871;52.702;5.230;2023-04-01T21:05:45;18.02;;;9.00;;
27412;SDS011;14871;52.702;5.230;2023-04-01T21:08:40;13.75;;;8.10;;
27412;SDS011;14871;52.702;5.230;2023-04-01T21:19:20;14.20;;;8.98;;
27412;SDS011;14871;52.702;5.230;2023-04-01T21:38:48;14.73;;;8.95;;
27412;SDS011;14871;52.702;5.230;2023-04-01T21:41:38;15.55;;;9.60;;
27412;SDS011;14871;52.702;5.230;2023-04-01T21:44:15;12.50;;;8.57;;
27412;SDS011;14871;52.702;5.230;2023-04-01T21:49:46;15.52;;;9.00;;
27412;SDS011;14871;52.702;5.230;2023-04-01T22:00:48;14.20;;;8.63;;
27412;SDS011;14871;52.702;5.230;2023-04-01T22:04:11;14.15;;;8.98;;
27412;SDS011;14871;52.702;5.230;2023-04-01T22:07:16;14.00;;;9.35;;
27412;SDS011;14871;52.702;5.230;2023-04-01T22:09:47;13.02;;;9.05;;
27412;SDS011;14871;52.702;5.230;2023-04-01T22:12:38;11.23;;;8.07;;
27412;SDS011;14871;52.702;5.230;2023-04-01T22:18:06;9.85;;;8.07;;
27412;SDS011;14871;52.702;5.230;2023-04-01T22:20:48;14.13;;;9.37;;
27412;SDS011;14871;52.702;5.230;2023-04-01T22:26:33;14.20;;;7.80;;
27412;SDS011;14871;52.702;5.230;2023-04-01T22:56:11;12.60;;;7.28;;
27412;SDS011;14871;52.702;5.230;2023-04-01T23:01:49;14.90;;;7.20;;
27412;SDS011;14871;52.702;5.230;2023-04-01T23:04:21;13.73;;;7.43;;
27412;SDS011;14871;52.702;5.230;2023-04-01T23:06:55;12.35;;;7.03;;
27412;SDS011;14871;52.702;5.230;2023-04-01T23:09:26;11.98;;;6.78;;
27412;SDS011;14871;52.702;5.230;2023-04-01T23:12:02;11.57;;;7.13;;
27412;SDS011;14871;52.702;5.230;2023-04-01T23:14:37;10.23;;;6.50;;
27412;SDS011;14871;52.702;5.230;2023-04-01T23:17:20;16.55;;;7.18;;
27412;SDS011;14871;52.702;5.230;2023-04-01T23:25:32;9.45;;;6.70;;
27412;SDS011;14871;52.702;5.230;2023-04-01T23:28:17;15.18;;;6.75;;
27412;SDS011;14871;52.702;5.230;2023-04-01T23:35:46;12.13;;;7.70;;
27412;SDS011;14871;52.702;5.230;2023-04-01T23:38:30;13.07;;;6.75;;
27412;SDS011;14871;52.702;5.230;2023-04-01T23:41:00;14.05;;;7.35;;
27412;SDS011;14871;52.702;5.230;2023-04-01T23:43:27;12.93;;;6.70;;
27412;SDS011;14871;52.702;5.230;2023-04-01T23:46:00;12.02;;;6.57;;
27412;SDS011;14871;52.702;5.230;2023-04-01T23:48:32;12.80;;;6.78;;
27412;SDS011;14871;52.702;5.230;2023-04-01T23:51:01;12.38;;;6.38;;
27412;SDS011;14871;52.702;5.230;2023-04-01T23:53:29;15.43;;;8.00;;
27412;SDS011;14871;52.702;5.230;2023-04-01T23:55:59;10.60;;;6.43;;
27412;SDS011;14871;52.702;5.230;2023-04-01T23:58:38;10.77;;;6.88;;
